createdAt,value
2024-01-07T00:00:03.109Z,1012.3
2024-01-07T00:15:02.480Z,1012.9
2024-01-07T00:30:03.164Z,1012.5
2024-01-07T00:45:02.402Z,1012.7
2024-01-07T01:00:02.977Z,1013.1
2024-01-07T01:15:02.244Z,1013.3
2024-01-07T01:30:02.718Z,1013.1
2024-01-07T01:45:03.235Z,1013.4
2024-01-07T02:00:02.586Z,1013.5
2024-01-07T02:15:03.127Z,1013.6
2024-01-07T02:30:02.473Z,1013.7
2024-01-07T02:45:03.160Z,1014.0
2024-01-07T03:00:02.377Z,1013.8
2024-01-07T03:15:02.810Z,1014.1
2024-01-07T03:30:02.286Z,1014.4
2024-01-07T03:45:02.673Z,1014.5
2024-01-07T04:00:03.139Z,1014.7
2024-01-07T04:15:02.553Z,1014.7
2024-01-07T04:30:03.162Z,1014.8
2024-01-07T04:45:02.440Z,1015.2
2024-01-07T05:00:02.876Z,1015.3
2024-01-07T05:15:02.347Z,1015.6
2024-01-07T05:30:02.760Z,1015.6
2024-01-07T05:45:03.171Z,1015.7
2024-01-07T06:00:02.608Z,1016.3
2024-01-07T06:15:03.157Z,1016.3
2024-01-07T06:30:02.491Z,1016.7
2024-01-07T06:45:03.157Z,1017.0
2024-01-07T07:00:02.376Z,1017.2
2024-01-07T07:15:02.854Z,1017.5
2024-01-07T07:30:02.292Z,1017.9
2024-01-07T07:45:02.702Z,1018.1
2024-01-07T08:00:04.837Z,1018.3
2024-01-07T08:15:02.604Z,1018.8
2024-01-07T08:30:03.272Z,1018.8
2024-01-07T08:45:02.467Z,1018.9
2024-01-07T09:00:02.960Z,1019.5
2024-01-07T09:15:02.332Z,1019.6
2024-01-07T09:30:02.862Z,1019.8
2024-01-07T09:45:02.227Z,1020.0
2024-01-07T10:00:02.674Z,1019.9
2024-01-07T10:15:03.221Z,1020.2
2024-01-07T10:30:02.529Z,1020.0
2024-01-07T10:45:03.212Z,1020.4
2024-01-07T11:00:02.403Z,1020.3
2024-01-07T11:15:02.841Z,1020.5
2024-01-07T11:30:02.299Z,1020.4
2024-01-07T11:45:02.760Z,1020.5
2024-01-07T12:00:03.244Z,1020.5
2024-01-07T12:15:02.626Z,1020.5
2024-01-07T12:30:03.239Z,1020.6
2024-01-07T12:45:02.507Z,1020.5
2024-01-07T13:00:02.927Z,1020.7
2024-01-07T13:15:02.380Z,1020.8
2024-01-07T13:30:02.788Z,1020.9
2024-01-07T13:45:03.252Z,1021.0
2024-01-07T14:00:02.725Z,1021.0
2024-01-07T14:15:03.283Z,1021.2
2024-01-07T14:30:02.512Z,1021.3
2024-01-07T14:45:02.977Z,1021.4
2024-01-07T15:00:02.485Z,1021.6
2024-01-07T15:15:02.829Z,1021.7
2024-01-07T15:30:02.280Z,1022.0
2024-01-07T15:45:02.719Z,1022.1
2024-01-07T16:00:03.262Z,1022.1
2024-01-07T16:15:02.609Z,1022.4
2024-01-07T16:30:03.264Z,1022.5
2024-01-07T16:45:02.478Z,1022.6
2024-01-07T17:00:02.916Z,1022.7
2024-01-07T17:15:02.423Z,1022.8
2024-01-07T17:30:02.790Z,1023.0
2024-01-07T17:45:03.295Z,1023.3
2024-01-07T18:00:02.682Z,1023.4
2024-01-07T18:15:03.311Z,1023.4
2024-01-07T18:30:02.578Z,1023.5
2024-01-07T18:45:03.067Z,1023.5
2024-01-07T19:00:02.441Z,1023.6
2024-01-07T19:15:02.925Z,1023.9
2024-01-07T19:30:02.316Z,1024.1
2024-01-07T19:45:02.771Z,1024.2
2024-01-07T20:00:03.359Z,1024.3
2024-01-07T20:15:02.688Z,1024.4
2024-01-07T20:30:03.322Z,1024.4
2024-01-07T20:45:02.553Z,1024.4
2024-01-07T21:00:02.951Z,1024.5
2024-01-07T21:15:02.363Z,1024.6
2024-01-07T21:30:02.799Z,1024.5
2024-01-07T21:45:02.336Z,1024.5
2024-01-07T22:00:02.719Z,1024.6
2024-01-07T22:15:03.310Z,1024.7
2024-01-07T22:30:02.549Z,1025.0
2024-01-07T22:45:03.015Z,1025.0
2024-01-07T23:00:02.644Z,1025.0
2024-01-07T23:15:02.854Z,1025.1
2024-01-07T23:30:02.433Z,1025.2
2024-01-07T23:45:02.746Z,1025.2
